sensor_id;sensor_type;location;lat;lon;timestamp;pressure;altitude;pressure_sealevel;temperature;humidity
19108;BME280;9686;48.832;9.126;2022-07-18T00:00:21;98877.91;;;19.53;66.43
19108;BME280;9686;48.832;9.126;2022-07-18T00:02:46;98877.84;;;19.56;69.95
19108;BME280;9686;48.832;9.126;2022-07-18T00:05:12;98878.59;;;19.59;70.66
19108;BME280;9686;48.832;9.126;2022-07-18T00:07:37;98878.81;;;19.53;72.13
19108;BME280;9686;48.832;9.126;2022-07-18T00:10:03;98872.78;;;19.47;71.00
19108;BME280;9686;48.832;9.126;2022-07-18T00:20:14;98874.81;;;19.38;71.46
19108;BME280;9686;48.832;9.126;2022-07-18T00:22:39;98880.34;;;19.31;70.33
19108;BME280;9686;48.832;9.126;2022-07-18T00:25:06;98887.78;;;19.46;72.11
19108;BME280;9686;48.832;9.126;2022-07-18T00:27:32;98875.91;;;19.31;68.57
19108;BME280;9686;48.832;9.126;2022-07-18T00:29:57;98877.66;;;19.32;71.74
19108;BME280;9686;48.832;9.126;2022-07-18T00:32:22;98888.28;;;19.31;71.37
19108;BME280;9686;48.832;9.126;2022-07-18T00:34:47;98883.53;;;19.13;72.48
19108;BME280;9686;48.832;9.126;2022-07-18T00:37:13;98881.13;;;19.05;71.19
19108;BME280;9686;48.832;9.126;2022-07-18T00:39:38;98873.28;;;19.02;72.19
19108;BME280;9686;48.832;9.126;2022-07-18T00:42:04;98871.56;;;18.99;71.44
19108;BME280;9686;48.832;9.126;2022-07-18T00:44:29;98867.19;;;19.00;75.55
19108;BME280;9686;48.832;9.126;2022-07-18T00:46:57;98868.47;;;18.85;75.49
19108;BME280;9686;48.832;9.126;2022-07-18T00:49:24;98864.84;;;18.89;74.86
19108;BME280;9686;48.832;9.126;2022-07-18T00:51:49;98863.88;;;18.92;74.54
19108;BME280;9686;48.832;9.126;2022-07-18T00:57:29;98868.38;;;18.88;77.65
19108;BME280;9686;48.832;9.126;2022-07-18T00:59:57;98871.06;;;18.87;77.18
19108;BME280;9686;48.832;9.126;2022-07-18T01:18:12;98871.44;;;18.74;79.81
19108;BME280;9686;48.832;9.126;2022-07-18T01:20:37;98859.81;;;18.80;78.21
19108;BME280;9686;48.832;9.126;2022-07-18T01:23:03;98867.84;;;18.77;79.63
19108;BME280;9686;48.832;9.126;2022-07-18T01:25:28;98862.56;;;18.77;78.72
19108;BME280;9686;48.832;9.126;2022-07-18T01:27:54;98865.56;;;18.63;82.08
19108;BME280;9686;48.832;9.126;2022-07-18T01:30:20;98867.34;;;18.63;82.54
19108;BME280;9686;48.832;9.126;2022-07-18T01:38:37;98869.63;;;18.42;83.42
19108;BME280;9686;48.832;9.126;2022-07-18T01:41:03;98865.47;;;18.34;83.36
19108;BME280;9686;48.832;9.126;2022-07-18T01:43:28;98862.13;;;18.27;84.54
19108;BME280;9686;48.832;9.126;2022-07-18T01:45:55;98860.44;;;18.25;84.77
19108;BME280;9686;48.832;9.126;2022-07-18T01:48:20;98864.81;;;18.26;85.20
19108;BME280;9686;48.832;9.126;2022-07-18T01:50:48;98860.84;;;18.09;84.96
19108;BME280;9686;48.832;9.126;2022-07-18T01:55:49;98859.28;;;18.02;88.95
19108;BME280;9686;48.832;9.126;2022-07-18T01:58:15;98861.16;;;17.97;89.07
19108;BME280;9686;48.832;9.126;2022-07-18T02:00:40;98869.00;;;18.00;89.42
19108;BME280;9686;48.832;9.126;2022-07-18T02:03:06;98870.81;;;17.98;88.15
19108;BME280;9686;48.832;9.126;2022-07-18T02:05:31;98868.47;;;17.86;85.36
19108;BME280;9686;48.832;9.126;2022-07-18T02:07:56;98870.00;;;17.95;87.12
19108;BME280;9686;48.832;9.126;2022-07-18T02:10:22;98878.19;;;17.84;89.20
19108;BME280;9686;48.832;9.126;2022-07-18T02:15:23;98875.56;;;17.84;89.53
19108;BME280;9686;48.832;9.126;2022-07-18T02:17:48;98867.84;;;17.76;91.58
19108;BME280;9686;48.832;9.126;2022-07-18T02:20:14;98867.09;;;17.71;91.72
19108;BME280;9686;48.832;9.126;2022-07-18T02:22:42;98866.22;;;17.69;93.58
19108;BME280;9686;48.832;9.126;2022-07-18T02:25:08;98869.03;;;17.62;92.62
19108;BME280;9686;48.832;9.126;2022-07-18T02:27:34;98872.72;;;17.54;93.33
19108;BME280;9686;48.832;9.126;2022-07-18T02:29:59;98872.63;;;17.57;93.08
19108;BME280;9686;48.832;9.126;2022-07-18T02:32:24;98874.44;;;17.55;94.31
19108;BME280;9686;48.832;9.126;2022-07-18T02:34:50;98874.50;;;17.54;92.64
19108;BME280;9686;48.832;9.126;2022-07-18T02:37:16;98878.91;;;17.53;94.61
19108;BME280;9686;48.832;9.126;2022-07-18T02:39:41;98872.72;;;17.54;93.69
19108;BME280;9686;48.832;9.126;2022-07-18T02:42:07;98873.78;;;17.47;94.05
19108;BME280;9686;48.832;9.126;2022-07-18T02:44:32;98877.56;;;17.34;95.60
19108;BME280;9686;48.832;9.126;2022-07-18T02:46:58;98877.56;;;17.34;94.22
19108;BME280;9686;48.832;9.126;2022-07-18T02:49:23;98886.50;;;17.29;96.65
19108;BME280;9686;48.832;9.126;2022-07-18T02:51:59;98879.47;;;17.27;96.50
19108;BME280;9686;48.832;9.126;2022-07-18T02:54:26;98879.66;;;17.20;97.21
19108;BME280;9686;48.832;9.126;2022-07-18T02:56:51;98881.47;;;17.18;96.59
19108;BME280;9686;48.832;9.126;2022-07-18T02:59:17;98880.50;;;17.22;95.22
19108;BME280;9686;48.832;9.126;2022-07-18T03:01:43;98880.72;;;17.11;98.83
19108;BME280;9686;48.832;9.126;2022-07-18T03:04:08;98879.00;;;17.09;97.87
19108;BME280;9686;48.832;9.126;2022-07-18T03:06:33;98875.78;;;16.96;97.97
19108;BME280;9686;48.832;9.126;2022-07-18T03:08:59;98875.69;;;17.01;99.45
19108;BME280;9686;48.832;9.126;2022-07-18T03:11:24;98875.50;;;17.08;98.78
19108;BME280;9686;48.832;9.126;2022-07-18T03:13:49;98882.63;;;17.05;97.93
19108;BME280;9686;48.832;9.126;2022-07-18T03:16:15;98878.44;;;16.94;97.47
19108;BME280;9686;48.832;9.126;2022-07-18T03:18:46;98881.22;;;16.87;100.00
19108;BME280;9686;48.832;9.126;2022-07-18T03:21:11;98881.19;;;16.88;100.00
19108;BME280;9686;48.832;9.126;2022-07-18T03:23:37;98885.63;;;16.86;100.00
19108;BME280;9686;48.832;9.126;2022-07-18T03:26:02;98880.31;;;16.88;100.00
19108;BME280;9686;48.832;9.126;2022-07-18T03:28:27;98883.16;;;16.79;100.00
19108;BME280;9686;48.832;9.126;2022-07-18T03:30:53;98887.63;;;16.75;100.00
19108;BME280;9686;48.832;9.126;2022-07-18T03:33:18;98882.53;;;16.63;100.00
19108;BME280;9686;48.832;9.126;2022-07-18T03:35:43;98893.03;;;16.68;100.00
19108;BME280;9686;48.832;9.126;2022-07-18T03:38:09;98884.56;;;16.50;100.00
19108;BME280;9686;48.832;9.126;2022-07-18T03:40:34;98881.09;;;16.48;100.00
19108;BME280;9686;48.832;9.126;2022-07-18T03:43:00;98887.16;;;16.52;100.00
19108;BME280;9686;48.832;9.126;2022-07-18T03:45:25;98885.47;;;16.49;100.00
19108;BME280;9686;48.832;9.126;2022-07-18T03:47:51;98880.13;;;16.52;100.00
19108;BME280;9686;48.832;9.126;2022-07-18T03:50:16;98892.28;;;16.59;100.00
19108;BME280;9686;48.832;9.126;2022-07-18T03:52:41;98892.50;;;16.49;100.00
19108;BME280;9686;48.832;9.126;2022-07-18T03:55:07;98890.75;;;16.48;100.00
19108;BME280;9686;48.832;9.126;2022-07-18T03:57:33;98883.00;;;16.40;100.00
19108;BME280;9686;48.832;9.126;2022-07-18T03:59:59;98882.03;;;16.46;100.00
19108;BME280;9686;48.832;9.126;2022-07-18T04:02:28;98882.16;;;16.37;100.00
19108;BME280;9686;48.832;9.126;2022-07-18T04:04:53;98878.59;;;16.39;100.00
19108;BME280;9686;48.832;9.126;2022-07-18T04:07:18;98884.72;;;16.43;100.00
19108;BME280;9686;48.832;9.126;2022-07-18T04:09:43;98873.22;;;16.47;100.00
19108;BME280;9686;48.832;9.126;2022-07-18T04:12:09;98872.47;;;16.40;100.00
19108;BME280;9686;48.832;9.126;2022-07-18T04:14:34;98881.44;;;16.28;100.00
19108;BME280;9686;48.832;9.126;2022-07-18T04:16:59;98872.78;;;16.23;100.00
19108;BME280;9686;48.832;9.126;2022-07-18T04:19:25;98877.94;;;16.29;100.00
19108;BME280;9686;48.832;9.126;2022-07-18T04:21:50;98884.78;;;16.38;100.00
19108;BME280;9686;48.832;9.126;2022-07-18T04:24:15;98890.03;;;16.40;100.00
19108;BME280;9686;48.832;9.126;2022-07-18T04:26:41;98890.75;;;16.48;100.00
19108;BME280;9686;48.832;9.126;2022-07-18T04:29:06;98885.38;;;16.54;100.00
19108;BME280;9686;48.832;9.126;2022-07-18T04:31:31;98881.00;;;16.53;100.00
19108;BME280;9686;48.832;9.126;2022-07-18T04:33:57;98878.25;;;16.59;100.00
19108;BME280;9686;48.832;9.126;2022-07-18T04:36:22;98878.16;;;16.63;100.00
19108;BME280;9686;48.832;9.126;2022-07-18T04:38:48;98882.53;;;16.66;100.00
19108;BME280;9686;48.832;9.126;2022-07-18T04:41:13;98876.38;;;16.67;100.00
19108;BME280;9686;48.832;9.126;2022-07-18T04:43:38;98872.75;;;16.73;100.00
19108;BME280;9686;48.832;9.126;2022-07-18T04:46:04;98872.72;;;16.74;100.00
19108;BME280;9686;48.832;9.126;2022-07-18T04:48:29;98870.72;;;16.85;100.00
19108;BME280;9686;48.832;9.126;2022-07-18T04:50:55;98872.34;;;16.92;100.00
19108;BME280;9686;48.832;9.126;2022-07-18T04:53:20;98882.09;;;16.87;100.00
19108;BME280;9686;48.832;9.126;2022-07-18T04:55:46;98881.16;;;16.91;100.00
19108;BME280;9686;48.832;9.126;2022-07-18T04:58:11;98881.03;;;16.98;100.00
19108;BME280;9686;48.832;9.126;2022-07-18T05:00:36;98882.59;;;17.06;100.00
19108;BME280;9686;48.832;9.126;2022-07-18T05:03:02;98878.84;;;17.18;100.00
19108;BME280;9686;48.832;9.126;2022-07-18T05:05:28;98863.72;;;17.26;100.00
19108;BME280;9686;48.832;9.126;2022-07-18T05:07:54;98875.88;;;17.32;100.00
19108;BME280;9686;48.832;9.126;2022-07-18T05:10:21;98874.88;;;17.37;100.00
19108;BME280;9686;48.832;9.126;2022-07-18T05:12:48;98876.44;;;17.46;100.00
19108;BME280;9686;48.832;9.126;2022-07-18T05:15:15;98870.91;;;17.56;100.00
19108;BME280;9686;48.832;9.126;2022-07-18T05:17:41;98882.16;;;17.63;100.00
19108;BME280;9686;48.832;9.126;2022-07-18T05:20:09;98874.06;;;17.74;100.00
19108;BME280;9686;48.832;9.126;2022-07-18T05:22:35;98869.34;;;17.86;100.00
19108;BME280;9686;48.832;9.126;2022-07-18T05:25:03;98865.72;;;17.91;100.00
19108;BME280;9686;48.832;9.126;2022-07-18T05:27:29;98872.63;;;17.96;100.00
19108;BME280;9686;48.832;9.126;2022-07-18T05:29:55;98871.53;;;18.05;100.00
19108;BME280;9686;48.832;9.126;2022-07-18T05:32:21;98874.69;;;18.17;100.00
19108;BME280;9686;48.832;9.126;2022-07-18T05:34:46;98872.66;;;18.29;100.00
19108;BME280;9686;48.832;9.126;2022-07-18T05:37:11;98877.78;;;18.35;100.00
19108;BME280;9686;48.832;9.126;2022-07-18T05:39:37;98873.22;;;18.40;100.00
19108;BME280;9686;48.832;9.126;2022-07-18T05:42:03;98875.56;;;18.52;99.46
19108;BME280;9686;48.832;9.126;2022-07-18T05:44:29;98870.91;;;18.60;98.81
19108;BME280;9686;48.832;9.126;2022-07-18T05:46:54;98872.50;;;18.67;99.61
19108;BME280;9686;48.832;9.126;2022-07-18T05:49:20;98870.06;;;18.91;97.21
19108;BME280;9686;48.832;9.126;2022-07-18T05:51:45;98873.16;;;19.06;92.68
19108;BME280;9686;48.832;9.126;2022-07-18T05:54:11;98872.94;;;19.13;90.49
19108;BME280;9686;48.832;9.126;2022-07-18T05:56:36;98878.88;;;19.21;90.88
19108;BME280;9686;48.832;9.126;2022-07-18T05:59:02;98877.00;;;19.24;91.03
19108;BME280;9686;48.832;9.126;2022-07-18T06:01:27;98874.03;;;19.35;90.31
19108;BME280;9686;48.832;9.126;2022-07-18T06:03:52;98869.47;;;19.40;87.46
19108;BME280;9686;48.832;9.126;2022-07-18T06:06:18;98872.78;;;19.47;84.55
19108;BME280;9686;48.832;9.126;2022-07-18T06:08:44;98867.22;;;19.57;83.04
19108;BME280;9686;48.832;9.126;2022-07-18T06:11:10;98867.06;;;19.62;85.16
19108;BME280;9686;48.832;9.126;2022-07-18T06:13:37;98863.91;;;19.77;83.88
19108;BME280;9686;48.832;9.126;2022-07-18T06:16:04;98868.00;;;19.87;81.77
19108;BME280;9686;48.832;9.126;2022-07-18T06:18:29;98865.72;;;20.01;81.99
19108;BME280;9686;48.832;9.126;2022-07-18T06:20:55;98864.69;;;20.07;80.75
19108;BME280;9686;48.832;9.126;2022-07-18T06:23:20;98874.16;;;20.14;81.72
19108;BME280;9686;48.832;9.126;2022-07-18T06:25:46;98873.53;;;20.32;79.18
19108;BME280;9686;48.832;9.126;2022-07-18T06:28:11;98871.22;;;20.48;77.97
19108;BME280;9686;48.832;9.126;2022-07-18T06:30:36;98874.38;;;20.59;76.55
19108;BME280;9686;48.832;9.126;2022-07-18T06:33:02;98868.84;;;20.66;73.68
19108;BME280;9686;48.832;9.126;2022-07-18T06:35:31;98877.13;;;20.80;74.04
19108;BME280;9686;48.832;9.126;2022-07-18T06:37:56;98868.06;;;20.87;73.01
19108;BME280;9686;48.832;9.126;2022-07-18T06:40:22;98868.28;;;21.04;72.10
19108;BME280;9686;48.832;9.126;2022-07-18T06:42:50;98868.88;;;21.12;71.34
19108;BME280;9686;48.832;9.126;2022-07-18T06:45:15;98870.34;;;21.19;70.34
19108;BME280;9686;48.832;9.126;2022-07-18T06:47:41;98869.09;;;21.30;72.61
19108;BME280;9686;48.832;9.126;2022-07-18T06:50:07;98859.94;;;21.38;68.96
19108;BME280;9686;48.832;9.126;2022-07-18T06:52:32;98868.56;;;21.43;70.54
19108;BME280;9686;48.832;9.126;2022-07-18T06:54:58;98865.59;;;21.51;70.97
19108;BME280;9686;48.832;9.126;2022-07-18T06:57:26;98870.56;;;21.60;69.46
19108;BME280;9686;48.832;9.126;2022-07-18T06:59:51;98862.09;;;21.72;70.84
19108;BME280;9686;48.832;9.126;2022-07-18T07:02:19;98863.31;;;21.85;67.14
19108;BME280;9686;48.832;9.126;2022-07-18T07:04:44;98856.78;;;21.94;64.48
19108;BME280;9686;48.832;9.126;2022-07-18T07:07:09;98862.31;;;22.10;64.81
19108;BME280;9686;48.832;9.126;2022-07-18T07:09:35;98859.59;;;22.11;63.24
19108;BME280;9686;48.832;9.126;2022-07-18T07:12:01;98859.22;;;22.21;64.14
19108;BME280;9686;48.832;9.126;2022-07-18T07:14:26;98851.66;;;22.32;63.80
19108;BME280;9686;48.832;9.126;2022-07-18T07:16:51;98854.03;;;22.38;60.02
19108;BME280;9686;48.832;9.126;2022-07-18T07:19:17;98859.81;;;22.48;60.93
19108;BME280;9686;48.832;9.126;2022-07-18T07:21:42;98852.22;;;22.59;61.53
19108;BME280;9686;48.832;9.126;2022-07-18T07:24:07;98853.34;;;22.73;60.81
19108;BME280;9686;48.832;9.126;2022-07-18T07:26:33;98850.22;;;22.84;60.38
19108;BME280;9686;48.832;9.126;2022-07-18T07:28:58;98847.03;;;22.96;59.48
19108;BME280;9686;48.832;9.126;2022-07-18T07:31:24;98847.59;;;23.03;56.62
19108;BME280;9686;48.832;9.126;2022-07-18T07:33:49;98845.22;;;23.16;56.12
19108;BME280;9686;48.832;9.126;2022-07-18T07:36:14;98846.75;;;23.21;53.05
19108;BME280;9686;48.832;9.126;2022-07-18T07:38:40;98845.53;;;23.28;54.77
19108;BME280;9686;48.832;9.126;2022-07-18T07:41:05;98845.78;;;23.41;51.77
19108;BME280;9686;48.832;9.126;2022-07-18T07:43:32;98848.88;;;23.51;52.46
19108;BME280;9686;48.832;9.126;2022-07-18T07:45:57;98844.22;;;23.56;51.90
19108;BME280;9686;48.832;9.126;2022-07-18T07:48:23;98843.84;;;23.63;50.67
19108;BME280;9686;48.832;9.126;2022-07-18T07:50:49;98837.31;;;23.71;50.77
19108;BME280;9686;48.832;9.126;2022-07-18T07:53:16;98835.97;;;23.79;49.47
19108;BME280;9686;48.832;9.126;2022-07-18T07:55:41;98831.03;;;23.89;48.17
19108;BME280;9686;48.832;9.126;2022-07-18T07:58:07;98832.41;;;23.97;48.23
19108;BME280;9686;48.832;9.126;2022-07-18T08:00:32;98822.13;;;24.07;47.47
19108;BME280;9686;48.832;9.126;2022-07-18T08:03:00;98827.25;;;24.29;45.44
19108;BME280;9686;48.832;9.126;2022-07-18T08:05:31;98828.72;;;24.52;45.06
19108;BME280;9686;48.832;9.126;2022-07-18T08:07:57;98826.25;;;24.65;43.27
19108;BME280;9686;48.832;9.126;2022-07-18T08:10:23;98828.75;;;24.68;41.58
19108;BME280;9686;48.832;9.126;2022-07-18T08:12:49;98820.81;;;24.83;42.19
19108;BME280;9686;48.832;9.126;2022-07-18T08:15:14;98828.63;;;24.86;41.33
19108;BME280;9686;48.832;9.126;2022-07-18T08:17:40;98822.59;;;25.00;41.66
19108;BME280;9686;48.832;9.126;2022-07-18T08:22:33;98827.50;;;25.24;40.49
19108;BME280;9686;48.832;9.126;2022-07-18T08:25:00;98828.81;;;25.32;41.24
19108;BME280;9686;48.832;9.126;2022-07-18T08:27:25;98820.72;;;25.34;38.71
19108;BME280;9686;48.832;9.126;2022-07-18T08:29:51;98819.16;;;25.61;38.62
19108;BME280;9686;48.832;9.126;2022-07-18T08:34:51;98825.88;;;25.68;37.73
19108;BME280;9686;48.832;9.126;2022-07-18T08:37:18;98828.09;;;25.92;37.71
19108;BME280;9686;48.832;9.126;2022-07-18T08:39:43;98820.06;;;25.92;37.76
19108;BME280;9686;48.832;9.126;2022-07-18T08:45:11;98821.28;;;26.16;36.90
19108;BME280;9686;48.832;9.126;2022-07-18T08:47:36;98818.66;;;26.30;37.99
19108;BME280;9686;48.832;9.126;2022-07-18T08:50:02;98815.38;;;26.41;37.22
19108;BME280;9686;48.832;9.126;2022-07-18T08:55:03;98816.53;;;26.65;37.44
19108;BME280;9686;48.832;9.126;2022-07-18T08:57:29;98822.94;;;26.77;36.69
19108;BME280;9686;48.832;9.126;2022-07-18T08:59:54;98826.00;;;26.71;36.98
19108;BME280;9686;48.832;9.126;2022-07-18T09:13:19;98814.44;;;27.13;35.22
19108;BME280;9686;48.832;9.126;2022-07-18T09:16:07;98828.28;;;27.20;35.92
19108;BME280;9686;48.832;9.126;2022-07-18T09:18:37;98821.38;;;27.30;33.97
19108;BME280;9686;48.832;9.126;2022-07-18T09:36:34;98818.56;;;27.87;32.12
19108;BME280;9686;48.832;9.126;2022-07-18T09:39:17;98822.22;;;27.86;31.38
19108;BME280;9686;48.832;9.126;2022-07-18T09:44:26;98807.25;;;28.09;31.84
19108;BME280;9686;48.832;9.126;2022-07-18T09:46:59;98807.84;;;28.27;30.60
19108;BME280;9686;48.832;9.126;2022-07-18T09:49:29;98805.16;;;28.27;30.95
19108;BME280;9686;48.832;9.126;2022-07-18T09:52:03;98803.66;;;28.35;29.59
19108;BME280;9686;48.832;9.126;2022-07-18T09:54:37;98798.00;;;28.52;29.68
19108;BME280;9686;48.832;9.126;2022-07-18T09:57:02;98802.63;;;28.50;30.25
19108;BME280;9686;48.832;9.126;2022-07-18T09:59:28;98798.75;;;28.54;30.13
19108;BME280;9686;48.832;9.126;2022-07-18T10:02:17;98798.31;;;28.73;29.61
19108;BME280;9686;48.832;9.126;2022-07-18T10:05:01;98790.38;;;28.97;29.89
19108;BME280;9686;48.832;9.126;2022-07-18T10:07:26;98783.28;;;28.96;29.13
19108;BME280;9686;48.832;9.126;2022-07-18T10:09:53;98795.97;;;28.94;28.99
19108;BME280;9686;48.832;9.126;2022-07-18T10:12:18;98791.41;;;29.07;28.93
19108;BME280;9686;48.832;9.126;2022-07-18T10:14:44;98794.09;;;29.20;28.75
19108;BME280;9686;48.832;9.126;2022-07-18T10:17:10;98796.09;;;29.29;28.40
19108;BME280;9686;48.832;9.126;2022-07-18T10:19:35;98793.56;;;29.39;28.72
19108;BME280;9686;48.832;9.126;2022-07-18T10:24:39;98795.06;;;29.56;28.85
19108;BME280;9686;48.832;9.126;2022-07-18T10:27:16;98795.34;;;29.64;28.48
19108;BME280;9686;48.832;9.126;2022-07-18T10:37:48;98794.69;;;29.84;27.39
19108;BME280;9686;48.832;9.126;2022-07-18T10:45:43;98783.16;;;29.95;27.76
19108;BME280;9686;48.832;9.126;2022-07-18T10:51:10;98781.50;;;30.05;27.37
19108;BME280;9686;48.832;9.126;2022-07-18T10:54:06;98779.31;;;30.10;27.21
19108;BME280;9686;48.832;9.126;2022-07-18T10:59:17;98776.19;;;30.27;26.70
19108;BME280;9686;48.832;9.126;2022-07-18T11:01:52;98777.28;;;30.36;27.62
19108;BME280;9686;48.832;9.126;2022-07-18T11:04:38;98777.53;;;30.44;26.91
19108;BME280;9686;48.832;9.126;2022-07-18T11:07:13;98763.38;;;30.53;26.36
19108;BME280;9686;48.832;9.126;2022-07-18T11:09:48;98767.41;;;30.59;26.18
19108;BME280;9686;48.832;9.126;2022-07-18T11:23:27;98758.63;;;30.90;24.97
19108;BME280;9686;48.832;9.126;2022-07-18T11:25:58;98752.13;;;30.93;25.16
19108;BME280;9686;48.832;9.126;2022-07-18T11:28:25;98742.47;;;30.90;24.75
19108;BME280;9686;48.832;9.126;2022-07-18T11:31:05;98746.28;;;30.99;24.44
19108;BME280;9686;48.832;9.126;2022-07-18T11:33:33;98742.94;;;31.18;25.02
19108;BME280;9686;48.832;9.126;2022-07-18T11:36:20;98740.63;;;31.24;24.65
19108;BME280;9686;48.832;9.126;2022-07-18T11:38:53;98736.31;;;31.22;24.58
19108;BME280;9686;48.832;9.126;2022-07-18T11:41:26;98734.97;;;31.27;24.46
19108;BME280;9686;48.832;9.126;2022-07-18T11:43:53;98731.66;;;31.35;24.75
19108;BME280;9686;48.832;9.126;2022-07-18T11:46:24;98725.53;;;31.33;23.39
19108;BME280;9686;48.832;9.126;2022-07-18T11:49:01;98730.72;;;31.46;23.67
19108;BME280;9686;48.832;9.126;2022-07-18T12:36:04;98695.72;;;32.50;21.66
19108;BME280;9686;48.832;9.126;2022-07-18T12:38:29;98698.72;;;32.47;21.82
19108;BME280;9686;48.832;9.126;2022-07-18T12:40:58;98700.41;;;32.48;22.11
19108;BME280;9686;48.832;9.126;2022-07-18T12:43:28;98703.97;;;32.48;21.66
19108;BME280;9686;48.832;9.126;2022-07-18T12:45:55;98694.53;;;32.64;22.32
19108;BME280;9686;48.832;9.126;2022-07-18T12:48:22;98687.28;;;32.64;22.48
19108;BME280;9686;48.832;9.126;2022-07-18T12:56:33;98680.84;;;32.56;21.90
19108;BME280;9686;48.832;9.126;2022-07-18T12:58:58;98682.00;;;32.53;22.96
19108;BME280;9686;48.832;9.126;2022-07-18T13:04:26;98674.84;;;32.52;22.29
19108;BME280;9686;48.832;9.126;2022-07-18T13:06:51;98670.56;;;32.49;22.85
19108;BME280;9686;48.832;9.126;2022-07-18T13:09:17;98668.50;;;32.53;22.68
19108;BME280;9686;48.832;9.126;2022-07-18T13:28:34;98666.16;;;32.79;22.65
19108;BME280;9686;48.832;9.126;2022-07-18T13:38:51;98660.38;;;32.93;22.48
19108;BME280;9686;48.832;9.126;2022-07-18T13:41:16;98656.97;;;33.01;22.68
19108;BME280;9686;48.832;9.126;2022-07-18T13:43:42;98651.56;;;33.01;22.72
19108;BME280;9686;48.832;9.126;2022-07-18T13:46:08;98651.31;;;33.14;22.58
19108;BME280;9686;48.832;9.126;2022-07-18T13:48:34;98646.66;;;33.35;22.95
19108;BME280;9686;48.832;9.126;2022-07-18T14:24:39;98621.44;;;33.15;22.29
19108;BME280;9686;48.832;9.126;2022-07-18T14:27:14;98626.69;;;33.17;23.08
19108;BME280;9686;48.832;9.126;2022-07-18T14:29:39;98623.44;;;33.13;22.83
19108;BME280;9686;48.832;9.126;2022-07-18T14:32:05;98617.31;;;33.21;23.67
19108;BME280;9686;48.832;9.126;2022-07-18T14:34:42;98614.22;;;33.35;21.78
19108;BME280;9686;48.832;9.126;2022-07-18T14:37:07;98619.75;;;33.43;21.66
19108;BME280;9686;48.832;9.126;2022-07-18T14:39:39;98622.03;;;33.48;21.95
19108;BME280;9686;48.832;9.126;2022-07-18T14:42:11;98617.06;;;33.33;22.17
19108;BME280;9686;48.832;9.126;2022-07-18T14:44:37;98613.88;;;33.28;22.59
19108;BME280;9686;48.832;9.126;2022-07-18T14:47:03;98615.59;;;33.20;22.07
19108;BME280;9686;48.832;9.126;2022-07-18T14:49:28;98610.63;;;33.15;22.40
19108;BME280;9686;48.832;9.126;2022-07-18T14:51:54;98608.63;;;33.27;21.53
19108;BME280;9686;48.832;9.126;2022-07-18T14:54:22;98614.03;;;33.27;22.43
19108;BME280;9686;48.832;9.126;2022-07-18T14:56:47;98616.75;;;33.07;22.21
19108;BME280;9686;48.832;9.126;2022-07-18T14:59:13;98607.19;;;33.03;22.13
19108;BME280;9686;48.832;9.126;2022-07-18T15:01:38;98610.75;;;33.04;22.03
19108;BME280;9686;48.832;9.126;2022-07-18T15:04:04;98611.47;;;33.16;22.27
19108;BME280;9686;48.832;9.126;2022-07-18T15:06:29;98604.50;;;33.03;22.11
19108;BME280;9686;48.832;9.126;2022-07-18T15:08:54;98603.06;;;33.28;21.92
19108;BME280;9686;48.832;9.126;2022-07-18T15:11:20;98600.72;;;33.35;21.79
19108;BME280;9686;48.832;9.126;2022-07-18T15:13:48;98601.66;;;33.53;23.01
19108;BME280;9686;48.832;9.126;2022-07-18T15:16:14;98595.69;;;33.50;21.08
19108;BME280;9686;48.832;9.126;2022-07-18T15:18:39;98597.09;;;33.54;21.62
19108;BME280;9686;48.832;9.126;2022-07-18T15:21:05;98592.16;;;33.59;21.06
19108;BME280;9686;48.832;9.126;2022-07-18T15:23:30;98591.00;;;33.52;21.12
19108;BME280;9686;48.832;9.126;2022-07-18T15:25:55;98589.84;;;33.54;21.97
19108;BME280;9686;48.832;9.126;2022-07-18T15:28:21;98586.44;;;33.52;21.01
19108;BME280;9686;48.832;9.126;2022-07-18T15:30:50;98581.91;;;33.43;21.84
19108;BME280;9686;48.832;9.126;2022-07-18T15:33:15;98581.31;;;33.30;21.92
19108;BME280;9686;48.832;9.126;2022-07-18T15:35:42;98580.19;;;33.23;21.94
19108;BME280;9686;48.832;9.126;2022-07-18T15:38:07;98583.72;;;33.23;22.30
19108;BME280;9686;48.832;9.126;2022-07-18T15:40:33;98580.06;;;33.34;21.64
19108;BME280;9686;48.832;9.126;2022-07-18T15:42:58;98571.34;;;33.30;21.40
19108;BME280;9686;48.832;9.126;2022-07-18T15:45:23;98565.84;;;33.32;21.80
19108;BME280;9686;48.832;9.126;2022-07-18T15:47:49;98566.38;;;33.45;21.82
19108;BME280;9686;48.832;9.126;2022-07-18T15:50:14;98560.44;;;33.41;21.32
19108;BME280;9686;48.832;9.126;2022-07-18T15:52:40;98562.66;;;33.27;21.72
19108;BME280;9686;48.832;9.126;2022-07-18T15:55:06;98553.72;;;33.26;21.40
19108;BME280;9686;48.832;9.126;2022-07-18T15:57:31;98554.56;;;33.46;21.66
19108;BME280;9686;48.832;9.126;2022-07-18T15:59:57;98557.81;;;33.30;21.98
19108;BME280;9686;48.832;9.126;2022-07-18T16:02:22;98548.00;;;33.29;21.83
19108;BME280;9686;48.832;9.126;2022-07-18T16:04:47;98551.16;;;33.25;22.08
19108;BME280;9686;48.832;9.126;2022-07-18T16:07:13;98553.72;;;33.17;21.91
19108;BME280;9686;48.832;9.126;2022-07-18T16:09:39;98541.78;;;33.19;22.21
19108;BME280;9686;48.832;9.126;2022-07-18T16:12:05;98548.16;;;33.28;22.31
19108;BME280;9686;48.832;9.126;2022-07-18T16:14:32;98544.59;;;33.27;22.49
19108;BME280;9686;48.832;9.126;2022-07-18T16:16:57;98543.78;;;33.07;21.87
19108;BME280;9686;48.832;9.126;2022-07-18T16:19:22;98546.06;;;33.12;21.92
19108;BME280;9686;48.832;9.126;2022-07-18T16:21:47;98529.38;;;33.26;22.64
19108;BME280;9686;48.832;9.126;2022-07-18T16:24:13;98529.72;;;33.33;21.09
19108;BME280;9686;48.832;9.126;2022-07-18T16:26:39;98536.81;;;33.34;21.70
19108;BME280;9686;48.832;9.126;2022-07-18T16:29:04;98522.03;;;33.09;21.17
19108;BME280;9686;48.832;9.126;2022-07-18T16:31:30;98532.69;;;33.10;21.88
19108;BME280;9686;48.832;9.126;2022-07-18T16:33:56;98522.31;;;33.06;22.13
19108;BME280;9686;48.832;9.126;2022-07-18T16:36:21;98521.72;;;33.02;22.83
19108;BME280;9686;48.832;9.126;2022-07-18T16:38:47;98524.00;;;32.97;23.24
19108;BME280;9686;48.832;9.126;2022-07-18T16:41:12;98521.44;;;32.96;22.82
19108;BME280;9686;48.832;9.126;2022-07-18T16:43:39;98526.84;;;32.96;22.23
19108;BME280;9686;48.832;9.126;2022-07-18T16:46:05;98515.63;;;32.91;22.25
19108;BME280;9686;48.832;9.126;2022-07-18T16:48:30;98522.00;;;32.99;23.17